createdAt,value
2018-12-23T00:00:28.667Z,6.20
2018-12-23T00:02:56.623Z,6.20
2018-12-23T00:05:23.202Z,6.20
2018-12-23T00:07:50.125Z,6.10
2018-12-23T00:10:16.555Z,6.20
2018-12-23T00:12:43.110Z,6.10
2018-12-23T00:15:09.862Z,6.20
2018-12-23T00:17:36.568Z,6.10
2018-12-23T00:20:06.717Z,6.20
2018-12-23T00:22:33.183Z,6.20
2018-12-23T00:24:59.735Z,6.30
2018-12-23T00:27:26.311Z,6.30
2018-12-23T00:29:52.930Z,6.40
2018-12-23T00:32:19.384Z,6.40
2018-12-23T00:34:45.890Z,6.30
2018-12-23T00:37:12.383Z,6.30
2018-12-23T00:39:38.999Z,6.40
2018-12-23T00:42:05.483Z,6.30
2018-12-23T00:44:32.102Z,6.30
2018-12-23T00:46:58.838Z,6.30
2018-12-23T00:49:25.521Z,6.30
2018-12-23T00:51:52.139Z,6.30
2018-12-23T00:54:18.802Z,6.20
2018-12-23T00:56:45.434Z,6.20
2018-12-23T00:59:12.000Z,6.20
2018-12-23T01:01:38.607Z,6.30
2018-12-23T01:04:05.124Z,6.30
2018-12-23T01:06:31.594Z,6.30
2018-12-23T01:08:58.062Z,6.30
2018-12-23T01:11:24.579Z,6.20
2018-12-23T01:13:51.092Z,6.20
2018-12-23T01:16:17.751Z,6.30
2018-12-23T01:18:44.229Z,6.30
2018-12-23T01:21:10.694Z,6.20
2018-12-23T01:23:37.225Z,6.30
2018-12-23T01:26:03.742Z,6.20
2018-12-23T01:28:30.199Z,6.30
2018-12-23T01:30:56.701Z,6.30
2018-12-23T01:33:23.211Z,6.30
2018-12-23T01:35:49.705Z,6.20
2018-12-23T01:38:17.119Z,6.30
2018-12-23T01:40:43.848Z,6.20
2018-12-23T01:43:10.446Z,6.20
2018-12-23T01:45:37.008Z,6.20
2018-12-23T01:48:03.538Z,6.20
2018-12-23T01:50:30.062Z,6.20
2018-12-23T01:52:56.531Z,6.30
2018-12-23T01:55:23.043Z,6.30
2018-12-23T01:57:49.513Z,6.30
2018-12-23T02:00:16.239Z,6.20
2018-12-23T02:02:42.842Z,6.20
2018-12-23T02:05:09.453Z,6.20
2018-12-23T02:07:35.912Z,6.30
2018-12-23T02:10:03.442Z,6.30
2018-12-23T02:12:29.906Z,6.40
2018-12-23T02:14:56.419Z,6.40
2018-12-23T02:17:22.875Z,6.30
2018-12-23T02:19:49.590Z,6.40
2018-12-23T02:22:16.085Z,6.40
2018-12-23T02:24:42.718Z,6.40
2018-12-23T02:27:09.447Z,6.40
2018-12-23T02:29:35.918Z,6.40
2018-12-23T02:32:02.599Z,6.40
2018-12-23T02:34:29.158Z,6.40
2018-12-23T02:36:55.726Z,6.40
2018-12-23T02:39:22.314Z,6.40
2018-12-23T02:41:48.949Z,6.50
2018-12-23T02:44:15.534Z,6.50
2018-12-23T02:46:42.156Z,6.60
2018-12-23T02:49:08.729Z,6.50
2018-12-23T02:51:35.652Z,6.40
2018-12-23T02:54:02.271Z,6.50
2018-12-23T02:56:28.749Z,6.40
2018-12-23T02:58:55.233Z,6.40
2018-12-23T03:01:21.848Z,6.40
2018-12-23T03:03:48.478Z,6.40
2018-12-23T03:06:15.202Z,6.40
2018-12-23T03:08:41.980Z,6.50
2018-12-23T03:11:08.811Z,6.40
2018-12-23T03:13:35.546Z,6.50
2018-12-23T03:16:02.052Z,6.60
2018-12-23T03:18:28.520Z,6.60
2018-12-23T03:20:55.046Z,6.50
2018-12-23T03:23:21.500Z,6.60
2018-12-23T03:25:48.523Z,6.50
2018-12-23T03:28:15.091Z,6.50
2018-12-23T03:30:41.925Z,6.50
2018-12-23T03:33:08.762Z,6.50
2018-12-23T03:35:35.828Z,6.50
2018-12-23T03:38:02.525Z,6.50
2018-12-23T03:40:28.999Z,6.50
2018-12-23T03:42:55.615Z,6.50
2018-12-23T03:45:22.093Z,6.60
2018-12-23T03:47:48.607Z,6.50
2018-12-23T03:50:15.179Z,6.60
2018-12-23T03:52:41.800Z,6.60
2018-12-23T03:55:08.410Z,6.60
2018-12-23T03:57:35.021Z,6.60
2018-12-23T04:00:04.128Z,6.70
2018-12-23T04:02:30.752Z,6.70
2018-12-23T04:04:57.267Z,6.70
2018-12-23T04:07:23.727Z,6.70
2018-12-23T04:09:50.395Z,6.70
2018-12-23T04:12:16.853Z,6.80
2018-12-23T04:14:43.353Z,6.70
2018-12-23T04:17:09.983Z,6.70
2018-12-23T04:19:36.657Z,6.70
2018-12-23T04:22:03.376Z,6.70
2018-12-23T04:24:30.043Z,6.70
2018-12-23T04:26:56.552Z,6.70
2018-12-23T04:29:23.117Z,6.70
2018-12-23T04:31:50.734Z,6.70
2018-12-23T04:34:17.312Z,6.70
2018-12-23T04:36:43.821Z,6.80
2018-12-23T04:39:10.483Z,6.80
2018-12-23T04:41:36.989Z,6.70
2018-12-23T04:44:03.605Z,6.80
2018-12-23T04:46:30.060Z,6.70
2018-12-23T04:48:58.286Z,6.80
2018-12-23T04:51:24.848Z,6.80
2018-12-23T04:53:51.444Z,6.80
2018-12-23T04:56:18.098Z,6.70
2018-12-23T04:58:44.671Z,6.80
2018-12-23T05:01:11.246Z,6.70
2018-12-23T05:03:42.522Z,6.80
2018-12-23T05:06:06.266Z,6.80
2018-12-23T05:08:32.906Z,6.80
2018-12-23T05:10:59.487Z,6.80
2018-12-23T05:13:26.058Z,6.80
2018-12-23T05:15:52.557Z,6.80
2018-12-23T05:18:19.411Z,6.90
2018-12-23T05:20:45.990Z,7.00
2018-12-23T05:23:12.602Z,7.00
2018-12-23T05:25:39.218Z,7.00
2018-12-23T05:28:07.440Z,7.00
2018-12-23T05:30:35.634Z,7.00
2018-12-23T05:33:03.377Z,7.00
2018-12-23T05:35:29.954Z,6.90
2018-12-23T05:37:56.667Z,7.00
2018-12-23T05:40:23.316Z,6.90
2018-12-23T05:42:49.890Z,7.00
2018-12-23T05:45:21.484Z,7.00
2018-12-23T05:47:48.383Z,6.90
2018-12-23T05:50:15.042Z,6.80
2018-12-23T05:52:41.656Z,6.80
2018-12-23T05:55:08.219Z,6.80
2018-12-23T05:57:34.925Z,6.80
2018-12-23T06:00:01.474Z,6.90
2018-12-23T06:02:28.107Z,6.80
2018-12-23T06:04:54.583Z,6.90
2018-12-23T06:07:21.085Z,6.90
2018-12-23T06:09:47.659Z,7.00
2018-12-23T06:12:14.162Z,7.00
2018-12-23T06:14:40.667Z,7.10
2018-12-23T06:17:07.366Z,7.10
2018-12-23T06:19:33.866Z,7.10
2018-12-23T06:22:00.432Z,7.10
2018-12-23T06:24:26.869Z,7.10
2018-12-23T06:26:53.335Z,7.00
2018-12-23T06:29:19.856Z,6.90
2018-12-23T06:31:46.443Z,6.90
2018-12-23T06:34:13.158Z,6.90
2018-12-23T06:36:39.615Z,7.00
2018-12-23T06:39:06.266Z,7.10
2018-12-23T06:41:34.875Z,7.10
2018-12-23T06:44:03.118Z,7.10
2018-12-23T06:46:29.726Z,7.10
2018-12-23T06:48:56.285Z,7.10
2018-12-23T06:51:23.026Z,7.20
2018-12-23T06:53:49.694Z,7.20
2018-12-23T06:56:16.202Z,7.20
2018-12-23T06:58:42.673Z,7.10
2018-12-23T07:01:09.198Z,7.10
2018-12-23T07:03:35.663Z,7.10
2018-12-23T07:06:02.193Z,7.10
2018-12-23T07:08:28.659Z,7.10
2018-12-23T07:10:55.307Z,7.10
2018-12-23T07:13:22.046Z,7.20
2018-12-23T07:15:48.663Z,7.20
2018-12-23T07:18:15.259Z,7.30
2018-12-23T07:20:41.819Z,7.20
2018-12-23T07:23:08.352Z,7.30
2018-12-23T07:25:34.843Z,7.20
2018-12-23T07:28:01.294Z,7.10
2018-12-23T07:30:27.826Z,7.10
2018-12-23T07:32:54.294Z,7.20
2018-12-23T07:35:20.792Z,7.10
2018-12-23T07:37:47.303Z,7.20
2018-12-23T07:40:14.011Z,7.10
2018-12-23T07:42:40.579Z,7.00
2018-12-23T07:45:07.185Z,7.10
2018-12-23T07:47:33.768Z,7.10
2018-12-23T07:50:01.486Z,7.10
2018-12-23T07:52:28.053Z,7.00
2018-12-23T07:54:54.660Z,7.00
2018-12-23T07:57:21.225Z,7.10
2018-12-23T07:59:47.960Z,7.10
2018-12-23T08:02:14.650Z,7.20
2018-12-23T08:04:42.858Z,7.00
2018-12-23T08:07:09.432Z,6.90
2018-12-23T08:09:35.930Z,7.00
2018-12-23T08:12:02.753Z,6.90
2018-12-23T08:14:29.350Z,6.90
2018-12-23T08:16:55.915Z,7.00
2018-12-23T08:19:22.510Z,7.00
2018-12-23T08:21:49.073Z,7.00
2018-12-23T08:24:15.838Z,7.00
2018-12-23T08:26:42.393Z,7.00
2018-12-23T08:29:09.183Z,7.00
2018-12-23T08:31:35.652Z,7.00
2018-12-23T08:34:02.158Z,7.00
2018-12-23T08:36:28.729Z,7.00
2018-12-23T08:38:55.541Z,7.10
2018-12-23T08:41:22.119Z,6.90
2018-12-23T08:43:48.810Z,6.90
2018-12-23T08:46:15.269Z,6.90
2018-12-23T08:48:41.770Z,6.90
2018-12-23T08:51:08.230Z,6.90
2018-12-23T08:53:34.697Z,7.00
2018-12-23T08:56:01.208Z,7.10
2018-12-23T08:58:27.773Z,7.10
2018-12-23T09:00:54.305Z,7.00
2018-12-23T09:03:20.867Z,7.00
2018-12-23T09:05:47.358Z,6.90
2018-12-23T09:08:13.825Z,6.90
2018-12-23T09:10:40.438Z,7.00
2018-12-23T09:13:06.892Z,7.00
2018-12-23T09:15:33.487Z,7.10
2018-12-23T09:17:59.945Z,7.00
2018-12-23T09:20:26.536Z,7.00
2018-12-23T09:22:53.022Z,7.00
2018-12-23T09:25:19.544Z,6.90
2018-12-23T09:27:46.058Z,7.00
2018-12-23T09:30:12.524Z,7.10
2018-12-23T09:32:39.131Z,7.10
2018-12-23T09:35:05.617Z,7.10
2018-12-23T09:37:32.233Z,7.10
2018-12-23T09:39:58.783Z,7.00
2018-12-23T09:42:25.402Z,7.20
2018-12-23T09:44:51.894Z,7.40
2018-12-23T09:47:18.422Z,7.40
2018-12-23T09:49:44.880Z,7.40
2018-12-23T09:52:11.419Z,7.40
2018-12-23T09:54:38.031Z,7.40
2018-12-23T09:57:04.604Z,7.40
2018-12-23T09:59:31.250Z,7.40
2018-12-23T10:01:57.839Z,7.40
2018-12-23T10:04:24.392Z,7.40
2018-12-23T10:06:50.915Z,7.40
2018-12-23T10:09:17.603Z,7.30
2018-12-23T10:11:44.167Z,7.40
2018-12-23T10:14:10.669Z,7.40
2018-12-23T10:16:37.280Z,7.40
2018-12-23T10:19:03.926Z,7.50
2018-12-23T10:21:30.387Z,7.50
2018-12-23T10:23:56.941Z,7.50
2018-12-23T10:26:23.405Z,7.50
2018-12-23T10:28:49.861Z,7.50
2018-12-23T10:31:16.635Z,7.50
2018-12-23T10:33:43.417Z,7.50
2018-12-23T10:36:09.903Z,7.40
2018-12-23T10:38:36.514Z,7.40
2018-12-23T10:41:03.146Z,7.30
2018-12-23T10:43:29.710Z,7.30
2018-12-23T10:45:56.376Z,7.30
2018-12-23T10:48:22.990Z,7.30
2018-12-23T10:50:49.454Z,7.40
2018-12-23T10:53:16.100Z,7.40
2018-12-23T10:55:42.770Z,7.30
2018-12-23T10:58:09.382Z,7.40
2018-12-23T11:00:35.949Z,7.40
2018-12-23T11:03:02.970Z,7.30
2018-12-23T11:05:29.536Z,7.30
2018-12-23T11:07:56.066Z,7.40
2018-12-23T11:10:22.522Z,7.50
2018-12-23T11:12:49.132Z,7.60
2018-12-23T11:15:15.694Z,7.60
2018-12-23T11:17:42.306Z,7.70
2018-12-23T11:20:08.875Z,7.60
2018-12-23T11:22:35.493Z,7.60
2018-12-23T11:25:02.541Z,7.60
2018-12-23T11:27:29.131Z,7.60
2018-12-23T11:29:55.750Z,7.70
2018-12-23T11:32:22.257Z,7.70
2018-12-23T11:34:49.003Z,7.60
2018-12-23T11:37:15.471Z,7.70
2018-12-23T11:39:42.095Z,7.70
2018-12-23T11:42:08.691Z,7.70
2018-12-23T11:44:35.320Z,7.70
2018-12-23T11:47:01.782Z,7.70
2018-12-23T11:49:28.502Z,7.70
2018-12-23T11:51:55.271Z,7.70
2018-12-23T11:54:23.487Z,7.80
2018-12-23T11:56:50.150Z,7.70
2018-12-23T11:59:16.740Z,7.70
2018-12-23T12:01:44.553Z,7.70
2018-12-23T12:04:11.546Z,7.70
2018-12-23T12:06:38.038Z,7.70
2018-12-23T12:09:07.031Z,7.70
2018-12-23T12:11:34.101Z,7.80
2018-12-23T12:14:00.775Z,7.80
2018-12-23T12:16:27.146Z,7.70
2018-12-23T12:18:53.610Z,7.50
2018-12-23T12:21:20.242Z,7.40
2018-12-23T12:23:46.752Z,7.40
2018-12-23T12:26:13.220Z,7.30
2018-12-23T12:28:39.954Z,7.30
2018-12-23T12:31:06.517Z,7.30
2018-12-23T12:33:33.123Z,7.40
2018-12-23T12:35:59.720Z,7.20
2018-12-23T12:38:26.187Z,7.10
2018-12-23T12:40:52.703Z,7.20
2018-12-23T12:43:19.270Z,7.40
2018-12-23T12:45:45.857Z,7.30
2018-12-23T12:48:12.447Z,7.20
2018-12-23T12:50:38.953Z,7.30
2018-12-23T12:53:05.535Z,7.30
2018-12-23T12:55:32.069Z,7.30
2018-12-23T12:57:58.586Z,7.40
2018-12-23T13:00:25.177Z,7.50
2018-12-23T13:02:51.807Z,7.50
2018-12-23T13:05:18.303Z,7.50
2018-12-23T13:07:45.000Z,7.50
2018-12-23T13:10:11.459Z,7.60
2018-12-23T13:12:38.051Z,7.50
2018-12-23T13:15:04.846Z,7.50
2018-12-23T13:17:32.579Z,7.50
2018-12-23T13:19:59.555Z,7.50
2018-12-23T13:22:26.164Z,7.40
2018-12-23T13:24:52.779Z,7.40
2018-12-23T13:27:19.162Z,7.50
2018-12-23T13:29:45.718Z,7.40
2018-12-23T13:32:12.233Z,7.50
2018-12-23T13:34:38.797Z,7.40
2018-12-23T13:37:05.336Z,7.40
2018-12-23T13:39:32.094Z,7.40
2018-12-23T13:42:03.493Z,7.50
2018-12-23T13:44:42.371Z,7.50
2018-12-23T13:47:15.770Z,7.50
2018-12-23T13:49:53.510Z,7.50
2018-12-23T13:56:11.792Z,7.50
2018-12-23T13:58:52.068Z,7.30
2018-12-23T14:01:32.513Z,7.40
2018-12-23T14:04:12.983Z,7.30
2018-12-23T14:06:54.571Z,7.40
2018-12-23T14:09:35.090Z,7.40
2018-12-23T14:12:15.646Z,7.40
2018-12-23T14:14:56.148Z,7.40
2018-12-23T14:17:36.791Z,7.40
2018-12-23T14:20:17.007Z,7.30
2018-12-23T14:22:57.395Z,7.20
2018-12-23T14:25:39.547Z,7.30
2018-12-23T14:28:20.055Z,7.20
2018-12-23T14:31:00.328Z,7.30
2018-12-23T14:33:40.821Z,7.20
2018-12-23T14:36:21.386Z,7.20
2018-12-23T14:39:01.644Z,7.10
2018-12-23T14:41:41.773Z,7.10
2018-12-23T14:44:22.302Z,7.20
2018-12-23T14:47:02.716Z,7.00
2018-12-23T14:49:43.163Z,7.10
2018-12-23T14:52:23.615Z,7.20
2018-12-23T14:55:03.876Z,7.20
2018-12-23T14:57:44.305Z,7.00
2018-12-23T15:00:24.494Z,7.10
2018-12-23T15:06:12.032Z,7.20
2018-12-23T15:08:52.533Z,7.20
2018-12-23T15:11:33.356Z,7.30
2018-12-23T15:14:13.770Z,7.40
2018-12-23T15:16:54.281Z,7.40
2018-12-23T15:19:34.711Z,7.30
2018-12-23T15:22:15.413Z,7.40
2018-12-23T15:24:56.868Z,7.20
2018-12-23T15:27:37.345Z,7.30
2018-12-23T15:30:17.357Z,7.30
2018-12-23T15:32:57.693Z,7.40
2018-12-23T15:35:38.031Z,7.40
2018-12-23T15:38:18.590Z,7.30
2018-12-23T15:40:58.868Z,7.20
2018-12-23T15:43:38.960Z,7.20
2018-12-23T15:46:19.425Z,7.20
2018-12-23T15:48:59.829Z,7.30
2018-12-23T15:51:40.518Z,7.20
2018-12-23T15:54:20.898Z,7.30
2018-12-23T15:57:01.916Z,7.30
2018-12-23T15:59:42.001Z,7.30
2018-12-23T16:02:22.538Z,7.30
2018-12-23T16:05:02.082Z,7.00
2018-12-23T16:07:42.416Z,6.90
2018-12-23T16:10:22.617Z,6.80
2018-12-23T16:13:02.964Z,6.80
2018-12-23T16:15:43.540Z,6.80
2018-12-23T16:18:23.982Z,6.80
2018-12-23T16:21:04.459Z,6.80
2018-12-23T16:23:44.843Z,6.70
2018-12-23T16:26:25.443Z,6.60
2018-12-23T16:29:05.837Z,6.40
2018-12-23T16:31:46.241Z,6.50
2018-12-23T16:34:26.604Z,6.30
2018-12-23T16:37:06.838Z,6.40
2018-12-23T16:39:47.168Z,6.40
2018-12-23T16:42:26.841Z,6.50
2018-12-23T16:45:07.413Z,6.50
2018-12-23T16:47:47.747Z,6.50
2018-12-23T16:50:28.078Z,6.50
2018-12-23T16:53:07.785Z,6.70
2018-12-23T16:55:49.183Z,6.80
2018-12-23T16:58:29.208Z,6.50
2018-12-23T17:01:09.376Z,6.60
2018-12-23T17:03:49.825Z,6.60
2018-12-23T17:06:30.293Z,6.50
2018-12-23T17:09:10.800Z,6.50
2018-12-23T17:11:51.174Z,6.40
2018-12-23T17:14:31.056Z,6.30
2018-12-23T17:17:11.395Z,6.40
2018-12-23T17:19:51.642Z,6.30
2018-12-23T17:22:29.368Z,6.40
2018-12-23T17:25:15.992Z,6.30
2018-12-23T17:28:04.309Z,6.30
2018-12-23T17:30:52.548Z,6.30
2018-12-23T17:33:40.843Z,6.40
2018-12-23T17:36:29.125Z,6.40
2018-12-23T17:39:17.415Z,6.30
2018-12-23T17:42:05.480Z,6.30
2018-12-23T17:44:53.770Z,6.30
2018-12-23T17:47:42.043Z,6.30
2018-12-23T17:50:30.280Z,6.40
2018-12-23T17:53:18.576Z,6.40
2018-12-23T17:56:06.803Z,6.50
2018-12-23T17:58:55.081Z,6.40
2018-12-23T18:01:43.368Z,6.40
2018-12-23T18:04:31.749Z,6.30
2018-12-23T18:07:20.037Z,6.40
2018-12-23T18:10:06.622Z,6.30
2018-12-23T18:12:54.870Z,6.30
2018-12-23T18:15:36.884Z,6.40
2018-12-23T18:18:17.213Z,6.40
2018-12-23T18:20:57.899Z,6.40
2018-12-23T18:23:38.084Z,6.50
2018-12-23T18:26:18.647Z,6.60
2018-12-23T18:28:59.138Z,6.50
2018-12-23T18:31:39.548Z,6.40
2018-12-23T18:34:17.232Z,6.60
2018-12-23T18:37:03.868Z,6.60
2018-12-23T18:39:45.969Z,6.50
2018-12-23T18:42:26.325Z,6.40
2018-12-23T18:45:06.624Z,6.30
2018-12-23T18:47:46.664Z,6.40
2018-12-23T18:50:26.261Z,6.30
2018-12-23T18:53:06.603Z,6.10
2018-12-23T18:55:47.266Z,6.30
2018-12-23T18:58:25.061Z,6.20
2018-12-23T19:01:11.776Z,6.10
2018-12-23T19:04:00.079Z,6.20
2018-12-23T19:06:48.316Z,6.20
2018-12-23T19:13:08.260Z,6.30
2018-12-23T19:15:48.120Z,6.20
2018-12-23T19:18:27.821Z,6.20
2018-12-23T19:21:08.163Z,6.20
2018-12-23T19:23:47.850Z,6.20
2018-12-23T19:26:29.233Z,6.10
2018-12-23T19:29:09.544Z,6.00
2018-12-23T19:31:49.792Z,6.00
2018-12-23T19:34:33.794Z,6.20
2018-12-23T19:37:11.772Z,6.10
2018-12-23T19:39:52.289Z,6.00
2018-12-23T19:42:32.195Z,5.90
2018-12-23T19:45:12.621Z,5.90
2018-12-23T19:47:53.064Z,5.90
2018-12-23T19:50:33.102Z,6.10
2018-12-23T19:53:14.584Z,6.10
2018-12-23T19:55:54.343Z,6.10
2018-12-23T19:58:34.936Z,6.10
2018-12-23T20:01:15.426Z,6.00
2018-12-23T20:03:55.615Z,6.00
2018-12-23T20:06:36.099Z,6.10
2018-12-23T20:09:16.476Z,6.10
2018-12-23T20:11:57.921Z,6.30
2018-12-23T20:14:38.335Z,6.20
2018-12-23T20:17:18.024Z,6.30
2018-12-23T20:19:58.558Z,6.30
2018-12-23T20:22:38.435Z,6.10
2018-12-23T20:25:18.065Z,6.00
2018-12-23T20:27:58.237Z,6.20
2018-12-23T20:30:38.696Z,6.20
2018-12-23T20:33:18.293Z,6.30
2018-12-23T20:35:58.672Z,6.20
2018-12-23T20:38:39.048Z,6.30
2018-12-23T20:41:19.489Z,6.30
2018-12-23T20:43:59.269Z,6.40
2018-12-23T20:46:39.668Z,6.30
2018-12-23T20:49:19.916Z,6.20
2018-12-23T20:51:59.444Z,6.20
2018-12-23T20:54:39.695Z,6.40
2018-12-23T20:57:20.053Z,6.30
2018-12-23T21:00:00.464Z,6.30
2018-12-23T21:02:40.587Z,6.40
2018-12-23T21:05:21.016Z,6.20
2018-12-23T21:08:01.248Z,6.30
2018-12-23T21:10:41.701Z,6.30
2018-12-23T21:13:22.246Z,6.30
2018-12-23T21:16:02.862Z,6.30
2018-12-23T21:18:43.067Z,6.20
2018-12-23T21:24:32.418Z,6.30
2018-12-23T21:27:12.145Z,6.30
2018-12-23T21:29:53.655Z,6.30
2018-12-23T21:32:34.261Z,6.30
2018-12-23T21:35:14.078Z,6.20
2018-12-23T21:41:32.134Z,5.90
2018-12-23T21:44:12.256Z,5.80
2018-12-23T21:50:03.255Z,5.90
2018-12-23T21:52:43.856Z,5.80
2018-12-23T21:55:24.316Z,5.80
2018-12-23T21:58:04.668Z,5.80
2018-12-23T22:00:45.039Z,5.80
2018-12-23T22:03:25.511Z,5.70
2018-12-23T22:06:05.933Z,5.50
2018-12-23T22:08:46.413Z,5.50
2018-12-23T22:11:33.036Z,5.50
2018-12-23T22:14:08.394Z,5.50
2018-12-23T22:16:48.900Z,5.50
2018-12-23T22:19:29.348Z,5.40
2018-12-23T22:22:09.804Z,5.40
2018-12-23T22:28:17.245Z,5.50
2018-12-23T22:30:56.956Z,5.50
2018-12-23T22:33:37.066Z,5.50
2018-12-23T22:36:17.701Z,5.40
2018-12-23T22:42:06.930Z,5.40
2018-12-23T22:44:47.387Z,5.40
2018-12-23T22:47:27.803Z,5.40
2018-12-23T22:50:08.438Z,5.40
2018-12-23T22:52:48.929Z,5.20
2018-12-23T22:55:29.490Z,5.20
2018-12-23T22:58:09.207Z,5.10
2018-12-23T23:00:49.435Z,4.90
2018-12-23T23:03:29.123Z,4.90
2018-12-23T23:06:09.539Z,4.90
2018-12-23T23:08:47.224Z,5.00
2018-12-23T23:11:36.381Z,5.00
2018-12-23T23:14:24.658Z,4.90
2018-12-23T23:17:12.997Z,4.90
2018-12-23T23:23:19.724Z,4.60
2018-12-23T23:26:21.709Z,4.60
2018-12-23T23:32:26.888Z,4.50
2018-12-23T23:35:07.391Z,4.60
2018-12-23T23:37:47.060Z,4.60
2018-12-23T23:40:26.772Z,4.70
2018-12-23T23:43:07.097Z,4.70
2018-12-23T23:52:32.128Z,4.60
2018-12-23T23:55:18.832Z,4.70
2018-12-23T23:58:08.567Z,4.60
